createdAt,value
2018-06-16T00:00:02.626Z,11.9
2018-06-16T00:15:02.971Z,11.9
2018-06-16T00:30:02.403Z,11.9
2018-06-16T00:45:02.718Z,11.9
2018-06-16T01:00:03.113Z,11.9
2018-06-16T01:15:02.462Z,11.9
2018-06-16T01:30:02.903Z,11.9
2018-06-16T01:45:03.333Z,11.9
2018-06-16T02:00:02.679Z,11.9
2018-06-16T02:15:03.015Z,11.9
2018-06-16T02:30:02.478Z,11.9
2018-06-16T02:45:02.813Z,11.9
2018-06-16T03:00:03.209Z,11.9
2018-06-16T03:15:02.635Z,11.9
2018-06-16T03:30:03.073Z,11.9
2018-06-16T03:45:02.412Z,11.9
2018-06-16T04:00:02.806Z,11.8
2018-06-16T04:15:03.231Z,11.8
2018-06-16T04:30:02.696Z,11.8
2018-06-16T04:45:03.013Z,11.8
2018-06-16T05:00:02.384Z,11.8
2018-06-16T05:15:02.752Z,11.8
2018-06-16T05:30:03.221Z,11.8
2018-06-16T05:45:02.578Z,11.9
2018-06-16T06:00:02.927Z,11.9
2018-06-16T06:15:03.324Z,11.9
2018-06-16T06:30:02.852Z,11.9
2018-06-16T06:45:03.221Z,11.9
2018-06-16T07:00:02.590Z,12
2018-06-16T07:15:02.917Z,12
2018-06-16T07:30:02.383Z,12.1
2018-06-16T07:45:02.745Z,12.1
2018-06-16T08:00:03.121Z,12.1
2018-06-16T08:15:02.508Z,12.2
2018-06-16T08:30:02.914Z,12.2
2018-06-16T08:45:03.328Z,12.2
2018-06-16T09:00:02.716Z,12.3
2018-06-16T09:15:03.052Z,12.4
2018-06-16T09:30:02.508Z,12.4
2018-06-16T09:45:02.859Z,12.4
2018-06-16T10:00:03.208Z,12.5
2018-06-16T10:15:02.644Z,12.6
2018-06-16T10:30:03.074Z,12.6
2018-06-16T10:45:02.428Z,12.8
2018-06-16T11:00:02.759Z,12.8
2018-06-16T11:15:03.146Z,12.9
2018-06-16T11:30:02.605Z,12.9
2018-06-16T11:45:02.938Z,13
2018-06-16T12:00:03.305Z,13.1
2018-06-16T12:15:02.703Z,13.1
2018-06-16T12:30:03.113Z,13.1
2018-06-16T12:45:02.479Z,13.2
2018-06-16T13:00:02.835Z,13.2
2018-06-16T13:15:03.238Z,13.3
2018-06-16T13:30:02.672Z,13.4
2018-06-16T13:45:03.033Z,13.4
2018-06-16T14:00:02.395Z,13.4
2018-06-16T14:15:02.716Z,13.4
2018-06-16T14:30:03.150Z,13.5
2018-06-16T14:45:02.499Z,13.6
2018-06-16T15:00:02.869Z,13.6
2018-06-16T15:15:03.256Z,13.6
2018-06-16T15:30:02.681Z,13.6
2018-06-16T15:45:02.997Z,13.6
2018-06-16T16:00:02.404Z,13.6
2018-06-16T16:15:02.717Z,13.6
2018-06-16T16:30:03.205Z,13.6
2018-06-16T16:45:02.557Z,13.6
2018-06-16T17:00:02.879Z,13.6
2018-06-16T17:15:02.304Z,13.6
2018-06-16T17:30:02.717Z,13.6
2018-06-16T17:45:03.089Z,13.6
2018-06-16T18:00:02.419Z,13.5
2018-06-16T18:15:02.766Z,13.5
2018-06-16T18:30:03.254Z,13.5
2018-06-16T18:45:02.625Z,13.5
2018-06-16T19:00:02.976Z,13.4
2018-06-16T19:15:02.320Z,13.4
2018-06-16T19:30:02.778Z,13.4
2018-06-16T19:45:03.236Z,13.4
2018-06-16T20:00:02.611Z,13.3
2018-06-16T20:15:02.968Z,13.2
2018-06-16T20:30:02.401Z,13.2
2018-06-16T20:45:02.773Z,13.2
2018-06-16T21:00:03.221Z,13.2
2018-06-16T21:15:02.575Z,13.2
2018-06-16T21:30:03.009Z,13.1
2018-06-16T21:45:02.434Z,13.1
2018-06-16T22:00:02.839Z,13.1
2018-06-16T22:15:03.223Z,13.1
2018-06-16T22:30:02.694Z,13
2018-06-16T22:45:03.010Z,13
2018-06-16T23:00:02.416Z,13
2018-06-16T23:15:02.778Z,12.9
2018-06-16T23:30:03.206Z,12.9
2018-06-16T23:45:02.616Z,12.9
